Terminal Aerodrome Forecast
Issued by NWS Wilmington, NC

Home | Current Version | Previous Version | Text Only | Print | Product List | Glossary On
Versions: 1 2 3 4 5 6 7 8 9 10 11 12 13 14 15 16
000
FTUS42 KILM 032320
TAFMYR
TAF
KMYR 032320Z 0400/0424 17012KT P6SM FEW030 SCT060
     FM040100 18006KT P6SM FEW060
     FM040900 VRB02KT P6SM SKC
     FM041300 15008KT P6SM SKC
      AMD LTD TO CLD VIS AND WIND TIL 041100=

USA.gov is the U.S. government's official web portal to all federal, state and local government web resources and services.